Coral — UBKJ — position and weather

sailwx.info

Track history (hours):
 
Tides and Currents Weather Stations Pressure Air Temp Water Temp Dewpoint Dewpoint Depression Visibility Wind Speed Wind Dir Waves Ship Positions

Coral

Last reported at 2017-Dec-13 00:16 UTC. Time now 2017-Dec-15 18:02 UTC.
Position N 45°31' E 036°46'.

Length 108 m; draft 2.4 m.

Type: Ship. MMSI: 273427610.

Date/timePositionNaut miles runAvg speedWind from/ knotsBaromVisibWave heightAir tempDewpointWater temp
2017-Dec-13 00:16N 45°31' E 036°46'2 9.1
2017-Dec-13 00:00N 45°29' E 036°44'4 9.0
2017-Dec-12 23:30N 45°25' E 036°41'4 8.3
2017-Dec-12 23:01N 45°21' E 036°40'4 8.8
2017-Dec-12 22:31N 45°19' E 036°34'4 6.9
2017-Dec-12 21:53N 45°17' E 036°29'2 4.6
2017-Dec-12 21:30N 45°15' E 036°29'2 3.3
2017-Dec-12 20:54N 45°13' E 036°29'1 0.0
2017-Dec-11 16:58N 45°13' E 036°30'0 0.0
2017-Dec-11 16:19N 45°13' E 036°30'0 0.0
2017-Dec-11 15:40N 45°13' E 036°30'0 0.0
2017-Dec-11 15:28N 45°13' E 036°30'0 0.0
2017-Dec-11 14:52N 45°13' E 036°30'0 0.0
2017-Dec-11 14:28N 45°13' E 036°30'0 0.0
2017-Dec-11 13:55N 45°13' E 036°30'0 0.0
2017-Dec-11 13:25N 45°13' E 036°30'0 0.0
2017-Dec-11 12:58N 45°13' E 036°30'0 0.0
2017-Dec-11 12:25N 45°13' E 036°30'0 0.0
2017-Dec-11 11:58N 45°13' E 036°30'0 0.0
2017-Dec-11 11:28N 45°13' E 036°30'0 0.0
2017-Dec-11 10:58N 45°13' E 036°30'0 0.0
2017-Dec-11 10:25N 45°13' E 036°30'0 0.0
2017-Dec-11 09:55N 45°13' E 036°30'0 0.0
2017-Dec-11 09:25N 45°13' E 036°30'0 0.0
2017-Dec-11 08:58N 45°13' E 036°30'0 0.0
2017-Dec-11 08:28N 45°13' E 036°30'0 0.0
2017-Dec-11 07:58N 45°13' E 036°30'0 0.0
2017-Dec-11 07:22N 45°13' E 036°30'0 0.0
2017-Dec-11 06:10N 45°13' E 036°30'0 0.1
2017-Dec-11 05:58N 45°13' E 036°30'0 0.0
2017-Dec-11 05:28N 45°13' E 036°30'0 0.0
2017-Dec-11 04:58N 45°13' E 036°30'0 0.0
2017-Dec-11 04:28N 45°13' E 036°30'0 0.1
2017-Dec-11 03:58N 45°13' E 036°30'0 0.0
2017-Dec-11 03:28N 45°13' E 036°30'0 0.0
2017-Dec-11 02:58N 45°13' E 036°30'0 0.0
2017-Dec-11 02:28N 45°13' E 036°30'0 0.0
2017-Dec-11 01:58N 45°13' E 036°30'0 0.0
2017-Dec-11 01:28N 45°13' E 036°30'0 0.0
2017-Dec-11 00:52N 45°13' E 036°30'0 0.0
2017-Dec-11 00:28N 45°13' E 036°30'0 0.0
2017-Dec-10 23:58N 45°13' E 036°30'0 0.0
2017-Dec-10 23:28N 45°13' E 036°30'0 0.0
2017-Dec-10 22:58N 45°13' E 036°30'0 0.0
2017-Dec-10 22:19N 45°13' E 036°30'0 0.0
2017-Dec-10 21:58N 45°13' E 036°30'0 0.0
2017-Dec-10 21:25N 45°13' E 036°30'0 0.0
2017-Dec-10 20:58N 45°13' E 036°30'0 0.0
2017-Dec-10 20:28N 45°13' E 036°30'0 0.0
2017-Dec-10 19:55N 45°13' E 036°30'0 0.1
2017-Dec-10 19:28N 45°13' E 036°30'1 0.1
2017-Dec-10 11:19N 45°12' E 036°29'2 7.3
2017-Dec-10 10:59N 45°10' E 036°28'  
Track history (hours):
 
Tides and Currents Weather Stations Pressure Air Temp Water Temp Dewpoint Dewpoint Depression Visibility Wind Speed Wind Dir Waves Ship Positions

Coral

Last reported at 2017-Dec-13 00:16 UTC. Time now 2017-Dec-15 18:02 UTC.
Position N 45°31' E 036°46'.

Length 108 m; draft 2.4 m.

Type: Ship. MMSI: 273427610.

Date/timePositionNaut miles runAvg speedWind from/ knotsBaromVisibWave heightAir tempDewpointWater temp
2017-Dec-13 00:16N 45°31' E 036°46'2 9.1
2017-Dec-13 00:00N 45°29' E 036°44'4 9.0
2017-Dec-12 23:30N 45°25' E 036°41'4 8.3
2017-Dec-12 23:01N 45°21' E 036°40'4 8.8
2017-Dec-12 22:31N 45°19' E 036°34'4 6.9
2017-Dec-12 21:53N 45°17' E 036°29'2 4.6
2017-Dec-12 21:30N 45°15' E 036°29'2 3.3
2017-Dec-12 20:54N 45°13' E 036°29'1 0.0
2017-Dec-11 16:58N 45°13' E 036°30'0 0.0
2017-Dec-11 16:19N 45°13' E 036°30'0 0.0
2017-Dec-11 15:40N 45°13' E 036°30'0 0.0
2017-Dec-11 15:28N 45°13' E 036°30'0 0.0
2017-Dec-11 14:52N 45°13' E 036°30'0 0.0
2017-Dec-11 14:28N 45°13' E 036°30'0 0.0
2017-Dec-11 13:55N 45°13' E 036°30'0 0.0
2017-Dec-11 13:25N 45°13' E 036°30'0 0.0
2017-Dec-11 12:58N 45°13' E 036°30'0 0.0
2017-Dec-11 12:25N 45°13' E 036°30'0 0.0
2017-Dec-11 11:58N 45°13' E 036°30'0 0.0
2017-Dec-11 11:28N 45°13' E 036°30'0 0.0
2017-Dec-11 10:58N 45°13' E 036°30'0 0.0
2017-Dec-11 10:25N 45°13' E 036°30'0 0.0
2017-Dec-11 09:55N 45°13' E 036°30'0 0.0
2017-Dec-11 09:25N 45°13' E 036°30'0 0.0
2017-Dec-11 08:58N 45°13' E 036°30'0 0.0
2017-Dec-11 08:28N 45°13' E 036°30'0 0.0
2017-Dec-11 07:58N 45°13' E 036°30'0 0.0
2017-Dec-11 07:22N 45°13' E 036°30'0 0.0
2017-Dec-11 06:10N 45°13' E 036°30'0 0.1
2017-Dec-11 05:58N 45°13' E 036°30'0 0.0
2017-Dec-11 05:28N 45°13' E 036°30'0 0.0
2017-Dec-11 04:58N 45°13' E 036°30'0 0.0
2017-Dec-11 04:28N 45°13' E 036°30'0 0.1
2017-Dec-11 03:58N 45°13' E 036°30'0 0.0
2017-Dec-11 03:28N 45°13' E 036°30'0 0.0
2017-Dec-11 02:58N 45°13' E 036°30'0 0.0
2017-Dec-11 02:28N 45°13' E 036°30'0 0.0
2017-Dec-11 01:58N 45°13' E 036°30'0 0.0
2017-Dec-11 01:28N 45°13' E 036°30'0 0.0
2017-Dec-11 00:52N 45°13' E 036°30'0 0.0
2017-Dec-11 00:28N 45°13' E 036°30'0 0.0
2017-Dec-10 23:58N 45°13' E 036°30'0 0.0
2017-Dec-10 23:28N 45°13' E 036°30'0 0.0
2017-Dec-10 22:58N 45°13' E 036°30'0 0.0
2017-Dec-10 22:19N 45°13' E 036°30'0 0.0
2017-Dec-10 21:58N 45°13' E 036°30'0 0.0
2017-Dec-10 21:25N 45°13' E 036°30'0 0.0
2017-Dec-10 20:58N 45°13' E 036°30'0 0.0
2017-Dec-10 20:28N 45°13' E 036°30'0 0.0
2017-Dec-10 19:55N 45°13' E 036°30'0 0.1
2017-Dec-10 19:28N 45°13' E 036°30'1 0.1
2017-Dec-10 11:19N 45°12' E 036°29'2 7.3
2017-Dec-10 10:59N 45°10' E 036°28'  

Dump ship's entire track history